sensor_id;sensor_type;location;lat;lon;timestamp;P1;durP1;ratioP1;P2;durP2;ratioP2
48651;SDS011;34442;52.362;-1.302;2022-09-13T00:00:55;2.40;;;1.30;;
48651;SDS011;34442;52.362;-1.302;2022-09-13T00:03:22;4.78;;;1.60;;
48651;SDS011;34442;52.362;-1.302;2022-09-13T00:05:48;2.58;;;1.58;;
48651;SDS011;34442;52.362;-1.302;2022-09-13T00:08:15;3.22;;;1.50;;
48651;SDS011;34442;52.362;-1.302;2022-09-13T00:10:42;2.47;;;1.40;;
48651;SDS011;34442;52.362;-1.302;2022-09-13T00:13:09;1.75;;;1.20;;
48651;SDS011;34442;52.362;-1.302;2022-09-13T00:15:41;2.35;;;1.25;;
48651;SDS011;34442;52.362;-1.302;2022-09-13T00:18:11;1.75;;;1.00;;
48651;SDS011;34442;52.362;-1.302;2022-09-13T00:20:38;1.83;;;1.10;;
48651;SDS011;34442;52.362;-1.302;2022-09-13T00:23:04;2.63;;;1.30;;
48651;SDS011;34442;52.362;-1.302;2022-09-13T00:25:30;2.83;;;1.10;;
48651;SDS011;34442;52.362;-1.302;2022-09-13T00:27:56;2.65;;;1.20;;
48651;SDS011;34442;52.362;-1.302;2022-09-13T00:30:25;1.90;;;1.00;;
48651;SDS011;34442;52.362;-1.302;2022-09-13T00:32:51;2.75;;;1.25;;
48651;SDS011;34442;52.362;-1.302;2022-09-13T00:35:17;1.63;;;1.00;;
48651;SDS011;34442;52.362;-1.302;2022-09-13T00:37:43;1.95;;;1.15;;
48651;SDS011;34442;52.362;-1.302;2022-09-13T00:40:09;1.15;;;0.88;;
48651;SDS011;34442;52.362;-1.302;2022-09-13T00:42:35;1.85;;;1.13;;
48651;SDS011;34442;52.362;-1.302;2022-09-13T00:47:53;1.65;;;0.98;;
48651;SDS011;34442;52.362;-1.302;2022-09-13T00:50:30;1.73;;;0.90;;
48651;SDS011;34442;52.362;-1.302;2022-09-13T00:53:16;1.10;;;0.80;;
48651;SDS011;34442;52.362;-1.302;2022-09-13T00:55:46;1.52;;;0.98;;
48651;SDS011;34442;52.362;-1.302;2022-09-13T00:58:17;2.88;;;1.10;;
48651;SDS011;34442;52.362;-1.302;2022-09-13T01:00:45;1.75;;;0.80;;
48651;SDS011;34442;52.362;-1.302;2022-09-13T01:03:12;1.23;;;0.90;;
48651;SDS011;34442;52.362;-1.302;2022-09-13T01:05:42;2.70;;;0.93;;
48651;SDS011;34442;52.362;-1.302;2022-09-13T01:08:12;1.77;;;1.10;;
48651;SDS011;34442;52.362;-1.302;2022-09-13T01:10:47;1.50;;;0.80;;
48651;SDS011;34442;52.362;-1.302;2022-09-13T01:13:19;0.95;;;0.80;;
48651;SDS011;34442;52.362;-1.302;2022-09-13T01:15:47;1.52;;;0.80;;
48651;SDS011;34442;52.362;-1.302;2022-09-13T01:18:14;1.65;;;1.05;;
48651;SDS011;34442;52.362;-1.302;2022-09-13T01:23:21;0.93;;;0.75;;
48651;SDS011;34442;52.362;-1.302;2022-09-13T01:26:16;3.05;;;1.00;;
48651;SDS011;34442;52.362;-1.302;2022-09-13T01:46:09;0.82;;;0.60;;
48651;SDS011;34442;52.362;-1.302;2022-09-13T01:56:43;2.38;;;1.10;;
48651;SDS011;34442;52.362;-1.302;2022-09-13T01:59:20;2.58;;;0.85;;
48651;SDS011;34442;52.362;-1.302;2022-09-13T02:02:03;2.33;;;0.80;;
48651;SDS011;34442;52.362;-1.302;2022-09-13T02:05:00;2.45;;;0.70;;
48651;SDS011;34442;52.362;-1.302;2022-09-13T02:07:33;1.35;;;0.80;;
48651;SDS011;34442;52.362;-1.302;2022-09-13T02:10:24;2.38;;;0.57;;
48651;SDS011;34442;52.362;-1.302;2022-09-13T02:12:55;2.50;;;0.82;;
48651;SDS011;34442;52.362;-1.302;2022-09-13T02:15:24;1.45;;;0.88;;
48651;SDS011;34442;52.362;-1.302;2022-09-13T02:17:55;1.20;;;0.63;;
48651;SDS011;34442;52.362;-1.302;2022-09-13T02:20:42;2.80;;;0.60;;
48651;SDS011;34442;52.362;-1.302;2022-09-13T02:23:12;1.77;;;1.00;;
48651;SDS011;34442;52.362;-1.302;2022-09-13T02:25:43;1.85;;;0.85;;
48651;SDS011;34442;52.362;-1.302;2022-09-13T02:28:13;1.25;;;0.70;;
48651;SDS011;34442;52.362;-1.302;2022-09-13T02:30:45;1.70;;;0.90;;
48651;SDS011;34442;52.362;-1.302;2022-09-13T02:33:27;1.17;;;0.80;;
48651;SDS011;34442;52.362;-1.302;2022-09-13T02:36:04;2.35;;;0.70;;
48651;SDS011;34442;52.362;-1.302;2022-09-13T02:38:41;1.48;;;0.70;;
48651;SDS011;34442;52.362;-1.302;2022-09-13T02:41:14;1.13;;;0.70;;
48651;SDS011;34442;52.362;-1.302;2022-09-13T02:43:48;0.60;;;0.60;;
48651;SDS011;34442;52.362;-1.302;2022-09-13T02:49:19;1.60;;;0.70;;
48651;SDS011;34442;52.362;-1.302;2022-09-13T02:54:51;1.55;;;0.70;;
48651;SDS011;34442;52.362;-1.302;2022-09-13T02:57:32;0.85;;;0.70;;
48651;SDS011;34442;52.362;-1.302;2022-09-13T03:00:04;1.05;;;0.70;;
48651;SDS011;34442;52.362;-1.302;2022-09-13T03:02:31;1.52;;;0.80;;
48651;SDS011;34442;52.362;-1.302;2022-09-13T03:04:58;1.15;;;0.70;;
48651;SDS011;34442;52.362;-1.302;2022-09-13T03:07:26;0.73;;;0.70;;
48651;SDS011;34442;52.362;-1.302;2022-09-13T03:09:57;1.33;;;0.80;;
48651;SDS011;34442;52.362;-1.302;2022-09-13T03:17:51;1.10;;;0.80;;
48651;SDS011;34442;52.362;-1.302;2022-09-13T03:20:45;1.73;;;0.80;;
48651;SDS011;34442;52.362;-1.302;2022-09-13T03:34:18;1.35;;;0.80;;
48651;SDS011;34442;52.362;-1.302;2022-09-13T03:36:57;1.38;;;0.80;;
48651;SDS011;34442;52.362;-1.302;2022-09-13T03:41:58;1.88;;;0.80;;
48651;SDS011;34442;52.362;-1.302;2022-09-13T03:44:30;0.88;;;0.75;;
48651;SDS011;34442;52.362;-1.302;2022-09-13T03:47:00;1.60;;;0.80;;
48651;SDS011;34442;52.362;-1.302;2022-09-13T03:49:28;0.98;;;0.80;;
48651;SDS011;34442;52.362;-1.302;2022-09-13T03:51:56;1.02;;;0.80;;
48651;SDS011;34442;52.362;-1.302;2022-09-13T03:54:27;1.55;;;0.70;;
48651;SDS011;34442;52.362;-1.302;2022-09-13T03:57:15;1.65;;;0.70;;
48651;SDS011;34442;52.362;-1.302;2022-09-13T03:59:49;1.52;;;0.80;;
48651;SDS011;34442;52.362;-1.302;2022-09-13T04:02:20;2.33;;;0.90;;
48651;SDS011;34442;52.362;-1.302;2022-09-13T04:04:47;2.33;;;0.88;;
48651;SDS011;34442;52.362;-1.302;2022-09-13T04:07:15;0.93;;;0.70;;
48651;SDS011;34442;52.362;-1.302;2022-09-13T04:09:43;1.00;;;0.70;;
48651;SDS011;34442;52.362;-1.302;2022-09-13T04:12:10;1.75;;;0.90;;
48651;SDS011;34442;52.362;-1.302;2022-09-13T04:14:39;1.20;;;0.70;;
48651;SDS011;34442;52.362;-1.302;2022-09-13T04:17:06;1.38;;;0.70;;
48651;SDS011;34442;52.362;-1.302;2022-09-13T04:19:32;2.30;;;1.42;;
48651;SDS011;34442;52.362;-1.302;2022-09-13T04:21:58;1.23;;;0.80;;
48651;SDS011;34442;52.362;-1.302;2022-09-13T04:24:25;0.88;;;0.70;;
48651;SDS011;34442;52.362;-1.302;2022-09-13T04:26:52;1.55;;;0.80;;
48651;SDS011;34442;52.362;-1.302;2022-09-13T04:29:19;1.98;;;0.88;;
48651;SDS011;34442;52.362;-1.302;2022-09-13T04:31:48;1.13;;;0.77;;
48651;SDS011;34442;52.362;-1.302;2022-09-13T04:34:15;2.45;;;0.85;;
48651;SDS011;34442;52.362;-1.302;2022-09-13T04:36:43;1.15;;;0.90;;
48651;SDS011;34442;52.362;-1.302;2022-09-13T04:39:10;1.05;;;0.90;;
48651;SDS011;34442;52.362;-1.302;2022-09-13T04:41:41;2.85;;;1.00;;
48651;SDS011;34442;52.362;-1.302;2022-09-13T04:44:09;0.80;;;0.70;;
48651;SDS011;34442;52.362;-1.302;2022-09-13T04:46:35;2.13;;;0.80;;
48651;SDS011;34442;52.362;-1.302;2022-09-13T04:49:01;2.40;;;1.13;;
48651;SDS011;34442;52.362;-1.302;2022-09-13T04:51:28;0.75;;;0.70;;
48651;SDS011;34442;52.362;-1.302;2022-09-13T04:53:54;2.03;;;0.73;;
48651;SDS011;34442;52.362;-1.302;2022-09-13T04:56:22;0.70;;;0.52;;
48651;SDS011;34442;52.362;-1.302;2022-09-13T04:58:52;2.20;;;0.90;;
48651;SDS011;34442;52.362;-1.302;2022-09-13T05:01:20;1.45;;;0.68;;
48651;SDS011;34442;52.362;-1.302;2022-09-13T05:03:46;1.20;;;0.75;;
48651;SDS011;34442;52.362;-1.302;2022-09-13T05:06:13;0.70;;;0.70;;
48651;SDS011;34442;52.362;-1.302;2022-09-13T05:08:42;0.95;;;0.77;;
48651;SDS011;34442;52.362;-1.302;2022-09-13T05:11:09;0.98;;;0.73;;
48651;SDS011;34442;52.362;-1.302;2022-09-13T05:13:35;2.22;;;0.90;;
48651;SDS011;34442;52.362;-1.302;2022-09-13T05:16:04;2.28;;;0.82;;
48651;SDS011;34442;52.362;-1.302;2022-09-13T05:18:33;0.60;;;0.60;;
48651;SDS011;34442;52.362;-1.302;2022-09-13T05:21:00;1.30;;;1.00;;
48651;SDS011;34442;52.362;-1.302;2022-09-13T05:23:29;1.35;;;0.70;;
48651;SDS011;34442;52.362;-1.302;2022-09-13T05:25:57;0.82;;;0.50;;
48651;SDS011;34442;52.362;-1.302;2022-09-13T05:28:26;0.70;;;0.60;;
48651;SDS011;34442;52.362;-1.302;2022-09-13T05:30:56;0.93;;;0.80;;
48651;SDS011;34442;52.362;-1.302;2022-09-13T05:33:35;2.20;;;0.90;;
48651;SDS011;34442;52.362;-1.302;2022-09-13T05:36:03;1.00;;;0.80;;
48651;SDS011;34442;52.362;-1.302;2022-09-13T05:38:30;0.95;;;0.80;;
48651;SDS011;34442;52.362;-1.302;2022-09-13T05:40:58;0.57;;;0.57;;
48651;SDS011;34442;52.362;-1.302;2022-09-13T05:43:27;1.50;;;0.80;;
48651;SDS011;34442;52.362;-1.302;2022-09-13T05:46:04;1.80;;;0.90;;
48651;SDS011;34442;52.362;-1.302;2022-09-13T05:48:32;0.75;;;0.63;;
48651;SDS011;34442;52.362;-1.302;2022-09-13T05:51:09;0.90;;;0.80;;
48651;SDS011;34442;52.362;-1.302;2022-09-13T05:53:39;0.70;;;0.70;;
48651;SDS011;34442;52.362;-1.302;2022-09-13T05:56:07;1.48;;;0.85;;
48651;SDS011;34442;52.362;-1.302;2022-09-13T05:58:37;0.73;;;0.70;;
48651;SDS011;34442;52.362;-1.302;2022-09-13T06:01:04;0.80;;;0.80;;
48651;SDS011;34442;52.362;-1.302;2022-09-13T06:03:30;0.73;;;0.70;;
48651;SDS011;34442;52.362;-1.302;2022-09-13T06:05:56;0.80;;;0.70;;
48651;SDS011;34442;52.362;-1.302;2022-09-13T06:08:24;1.27;;;0.70;;
48651;SDS011;34442;52.362;-1.302;2022-09-13T06:10:57;0.90;;;0.73;;
48651;SDS011;34442;52.362;-1.302;2022-09-13T06:13:28;0.73;;;0.63;;
48651;SDS011;34442;52.362;-1.302;2022-09-13T06:15:55;1.27;;;0.77;;
48651;SDS011;34442;52.362;-1.302;2022-09-13T06:18:23;0.95;;;0.75;;
48651;SDS011;34442;52.362;-1.302;2022-09-13T06:20:50;1.23;;;0.80;;
48651;SDS011;34442;52.362;-1.302;2022-09-13T06:23:16;0.85;;;0.60;;
48651;SDS011;34442;52.362;-1.302;2022-09-13T06:25:42;1.58;;;0.80;;
48651;SDS011;34442;52.362;-1.302;2022-09-13T06:28:08;1.73;;;0.90;;
48651;SDS011;34442;52.362;-1.302;2022-09-13T06:30:34;0.93;;;0.90;;
48651;SDS011;34442;52.362;-1.302;2022-09-13T06:33:00;1.38;;;0.80;;
48651;SDS011;34442;52.362;-1.302;2022-09-13T06:35:27;1.52;;;0.90;;
48651;SDS011;34442;52.362;-1.302;2022-09-13T06:37:56;1.80;;;0.70;;
48651;SDS011;34442;52.362;-1.302;2022-09-13T06:40:23;0.77;;;0.70;;
48651;SDS011;34442;52.362;-1.302;2022-09-13T06:42:49;1.00;;;0.80;;
48651;SDS011;34442;52.362;-1.302;2022-09-13T06:45:15;1.08;;;0.80;;
48651;SDS011;34442;52.362;-1.302;2022-09-13T06:47:42;1.00;;;0.60;;
48651;SDS011;34442;52.362;-1.302;2022-09-13T06:50:08;0.82;;;0.70;;
48651;SDS011;34442;52.362;-1.302;2022-09-13T06:52:34;1.08;;;0.77;;
48651;SDS011;34442;52.362;-1.302;2022-09-13T06:55:00;0.68;;;0.68;;
48651;SDS011;34442;52.362;-1.302;2022-09-13T06:57:28;1.48;;;0.60;;
48651;SDS011;34442;52.362;-1.302;2022-09-13T06:59:55;1.10;;;0.80;;
48651;SDS011;34442;52.362;-1.302;2022-09-13T07:02:21;1.77;;;0.90;;
48651;SDS011;34442;52.362;-1.302;2022-09-13T07:04:49;1.15;;;0.80;;
48651;SDS011;34442;52.362;-1.302;2022-09-13T07:07:14;0.55;;;0.55;;
48651;SDS011;34442;52.362;-1.302;2022-09-13T07:09:40;1.02;;;0.60;;
48651;SDS011;34442;52.362;-1.302;2022-09-13T07:12:07;2.47;;;1.00;;
48651;SDS011;34442;52.362;-1.302;2022-09-13T07:14:33;1.40;;;0.70;;
48651;SDS011;34442;52.362;-1.302;2022-09-13T07:16:59;2.35;;;1.10;;
48651;SDS011;34442;52.362;-1.302;2022-09-13T07:19:26;1.50;;;0.88;;
48651;SDS011;34442;52.362;-1.302;2022-09-13T07:21:54;1.58;;;1.00;;
48651;SDS011;34442;52.362;-1.302;2022-09-13T07:24:21;1.00;;;0.85;;
48651;SDS011;34442;52.362;-1.302;2022-09-13T07:26:47;2.00;;;1.00;;
48651;SDS011;34442;52.362;-1.302;2022-09-13T07:29:15;1.60;;;1.00;;
48651;SDS011;34442;52.362;-1.302;2022-09-13T07:31:44;1.80;;;0.90;;
48651;SDS011;34442;52.362;-1.302;2022-09-13T07:34:14;1.50;;;0.98;;
48651;SDS011;34442;52.362;-1.302;2022-09-13T07:36:40;1.60;;;0.73;;
48651;SDS011;34442;52.362;-1.302;2022-09-13T07:39:07;1.13;;;0.90;;
48651;SDS011;34442;52.362;-1.302;2022-09-13T07:41:33;0.65;;;0.65;;
48651;SDS011;34442;52.362;-1.302;2022-09-13T07:44:00;2.42;;;1.02;;
48651;SDS011;34442;52.362;-1.302;2022-09-13T07:46:27;1.73;;;1.10;;
48651;SDS011;34442;52.362;-1.302;2022-09-13T07:48:58;1.13;;;0.70;;
48651;SDS011;34442;52.362;-1.302;2022-09-13T07:51:29;2.88;;;0.80;;
48651;SDS011;34442;52.362;-1.302;2022-09-13T07:54:04;1.38;;;0.85;;
48651;SDS011;34442;52.362;-1.302;2022-09-13T07:56:32;0.75;;;0.50;;
48651;SDS011;34442;52.362;-1.302;2022-09-13T07:59:02;1.23;;;0.70;;
48651;SDS011;34442;52.362;-1.302;2022-09-13T08:01:34;1.15;;;0.65;;
48651;SDS011;34442;52.362;-1.302;2022-09-13T08:04:06;1.13;;;0.77;;
48651;SDS011;34442;52.362;-1.302;2022-09-13T08:06:34;1.63;;;0.95;;
48651;SDS011;34442;52.362;-1.302;2022-09-13T08:09:02;2.35;;;1.10;;
48651;SDS011;34442;52.362;-1.302;2022-09-13T08:13:57;1.52;;;0.75;;
48651;SDS011;34442;52.362;-1.302;2022-09-13T08:16:25;0.98;;;0.82;;
48651;SDS011;34442;52.362;-1.302;2022-09-13T08:18:53;2.55;;;1.08;;
48651;SDS011;34442;52.362;-1.302;2022-09-13T08:21:21;2.40;;;1.27;;
48651;SDS011;34442;52.362;-1.302;2022-09-13T08:23:48;2.45;;;1.25;;
48651;SDS011;34442;52.362;-1.302;2022-09-13T08:26:14;1.40;;;1.08;;
48651;SDS011;34442;52.362;-1.302;2022-09-13T08:28:41;2.22;;;0.90;;
48651;SDS011;34442;52.362;-1.302;2022-09-13T08:31:09;2.58;;;0.90;;
48651;SDS011;34442;52.362;-1.302;2022-09-13T08:33:36;1.13;;;0.80;;
48651;SDS011;34442;52.362;-1.302;2022-09-13T08:36:03;1.00;;;0.70;;
48651;SDS011;34442;52.362;-1.302;2022-09-13T08:38:30;1.35;;;0.63;;
48651;SDS011;34442;52.362;-1.302;2022-09-13T08:40:57;1.02;;;0.65;;
48651;SDS011;34442;52.362;-1.302;2022-09-13T08:43:32;2.20;;;0.80;;
48651;SDS011;34442;52.362;-1.302;2022-09-13T08:46:38;0.82;;;0.75;;
48651;SDS011;34442;52.362;-1.302;2022-09-13T08:49:27;2.25;;;1.00;;
48651;SDS011;34442;52.362;-1.302;2022-09-13T08:51:57;2.70;;;1.08;;
48651;SDS011;34442;52.362;-1.302;2022-09-13T08:54:27;1.83;;;1.13;;
48651;SDS011;34442;52.362;-1.302;2022-09-13T08:59:39;1.73;;;0.90;;
48651;SDS011;34442;52.362;-1.302;2022-09-13T09:10:38;0.68;;;0.65;;
48651;SDS011;34442;52.362;-1.302;2022-09-13T09:13:13;1.63;;;1.00;;
48651;SDS011;34442;52.362;-1.302;2022-09-13T09:15:50;1.33;;;0.73;;
48651;SDS011;34442;52.362;-1.302;2022-09-13T09:20:53;2.33;;;1.02;;
48651;SDS011;34442;52.362;-1.302;2022-09-13T09:25:51;1.98;;;0.70;;
48651;SDS011;34442;52.362;-1.302;2022-09-13T09:28:21;1.60;;;0.80;;
48651;SDS011;34442;52.362;-1.302;2022-09-13T09:31:01;3.83;;;1.40;;
48651;SDS011;34442;52.362;-1.302;2022-09-13T09:39:09;1.05;;;0.70;;
48651;SDS011;34442;52.362;-1.302;2022-09-13T09:41:37;2.88;;;0.93;;
48651;SDS011;34442;52.362;-1.302;2022-09-13T09:44:19;1.10;;;0.68;;
48651;SDS011;34442;52.362;-1.302;2022-09-13T09:47:35;2.40;;;0.85;;
48651;SDS011;34442;52.362;-1.302;2022-09-13T09:52:42;1.10;;;0.60;;
48651;SDS011;34442;52.362;-1.302;2022-09-13T10:00:24;1.88;;;0.88;;
48651;SDS011;34442;52.362;-1.302;2022-09-13T10:02:56;1.55;;;0.90;;
48651;SDS011;34442;52.362;-1.302;2022-09-13T10:05:30;1.88;;;0.70;;
48651;SDS011;34442;52.362;-1.302;2022-09-13T10:07:58;2.42;;;0.88;;
48651;SDS011;34442;52.362;-1.302;2022-09-13T10:13:01;0.63;;;0.60;;
48651;SDS011;34442;52.362;-1.302;2022-09-13T10:15:30;1.42;;;0.80;;
48651;SDS011;34442;52.362;-1.302;2022-09-13T10:18:16;0.85;;;0.60;;
48651;SDS011;34442;52.362;-1.302;2022-09-13T10:20:43;0.50;;;0.50;;
48651;SDS011;34442;52.362;-1.302;2022-09-13T10:23:44;2.38;;;0.80;;
48651;SDS011;34442;52.362;-1.302;2022-09-13T10:26:18;1.08;;;0.60;;
48651;SDS011;34442;52.362;-1.302;2022-09-13T10:28:51;0.73;;;0.60;;
48651;SDS011;34442;52.362;-1.302;2022-09-13T10:31:19;1.02;;;0.55;;
48651;SDS011;34442;52.362;-1.302;2022-09-13T10:33:51;1.95;;;0.60;;
48651;SDS011;34442;52.362;-1.302;2022-09-13T10:36:31;1.08;;;0.70;;
48651;SDS011;34442;52.362;-1.302;2022-09-13T10:38:59;1.10;;;0.82;;
48651;SDS011;34442;52.362;-1.302;2022-09-13T10:41:28;3.08;;;0.85;;
48651;SDS011;34442;52.362;-1.302;2022-09-13T10:43:57;0.73;;;0.57;;
48651;SDS011;34442;52.362;-1.302;2022-09-13T10:46:25;1.45;;;0.73;;
48651;SDS011;34442;52.362;-1.302;2022-09-13T10:48:54;2.10;;;0.80;;
48651;SDS011;34442;52.362;-1.302;2022-09-13T10:54:34;1.38;;;0.80;;
48651;SDS011;34442;52.362;-1.302;2022-09-13T10:56:46;1.95;;;0.82;;
48651;SDS011;34442;52.362;-1.302;2022-09-13T10:59:22;0.70;;;0.50;;
48651;SDS011;34442;52.362;-1.302;2022-09-13T11:07:38;1.40;;;0.60;;
48651;SDS011;34442;52.362;-1.302;2022-09-13T11:10:31;1.42;;;0.80;;
48651;SDS011;34442;52.362;-1.302;2022-09-13T11:16:50;4.00;;;1.20;;
48651;SDS011;34442;52.362;-1.302;2022-09-13T11:32:25;1.80;;;0.60;;
48651;SDS011;34442;52.362;-1.302;2022-09-13T11:50:16;1.88;;;1.08;;
48651;SDS011;34442;52.362;-1.302;2022-09-13T11:55:26;0.90;;;0.55;;
48651;SDS011;34442;52.362;-1.302;2022-09-13T11:57:58;0.50;;;0.50;;
48651;SDS011;34442;52.362;-1.302;2022-09-13T12:00:41;0.55;;;0.52;;
48651;SDS011;34442;52.362;-1.302;2022-09-13T12:03:16;1.27;;;0.45;;
48651;SDS011;34442;52.362;-1.302;2022-09-13T12:05:44;0.98;;;0.47;;
48651;SDS011;34442;52.362;-1.302;2022-09-13T12:08:19;0.98;;;0.65;;
48651;SDS011;34442;52.362;-1.302;2022-09-13T12:10:50;1.17;;;0.75;;
48651;SDS011;34442;52.362;-1.302;2022-09-13T12:13:25;0.68;;;0.60;;
48651;SDS011;34442;52.362;-1.302;2022-09-13T12:15:58;1.20;;;0.60;;
48651;SDS011;34442;52.362;-1.302;2022-09-13T12:18:30;0.88;;;0.50;;
48651;SDS011;34442;52.362;-1.302;2022-09-13T12:21:13;0.30;;;0.30;;
48651;SDS011;34442;52.362;-1.302;2022-09-13T12:29:14;1.17;;;0.50;;
48651;SDS011;34442;52.362;-1.302;2022-09-13T12:31:45;1.05;;;0.70;;
48651;SDS011;34442;52.362;-1.302;2022-09-13T12:34:20;0.57;;;0.40;;
48651;SDS011;34442;52.362;-1.302;2022-09-13T12:36:56;1.60;;;0.60;;
48651;SDS011;34442;52.362;-1.302;2022-09-13T12:45:05;0.28;;;0.28;;
48651;SDS011;34442;52.362;-1.302;2022-09-13T13:01:37;0.57;;;0.55;;
48651;SDS011;34442;52.362;-1.302;2022-09-13T13:04:14;0.98;;;0.60;;
48651;SDS011;34442;52.362;-1.302;2022-09-13T13:12:08;1.27;;;0.60;;
48651;SDS011;34442;52.362;-1.302;2022-09-13T13:19:58;0.55;;;0.43;;
48651;SDS011;34442;52.362;-1.302;2022-09-13T13:28:02;0.30;;;0.30;;
48651;SDS011;34442;52.362;-1.302;2022-09-13T13:33:10;0.95;;;0.50;;
48651;SDS011;34442;52.362;-1.302;2022-09-13T13:35:40;1.13;;;0.70;;
48651;SDS011;34442;52.362;-1.302;2022-09-13T13:40:58;1.85;;;0.70;;
48651;SDS011;34442;52.362;-1.302;2022-09-13T13:43:33;0.50;;;0.50;;
48651;SDS011;34442;52.362;-1.302;2022-09-13T13:48:36;0.75;;;0.65;;
48651;SDS011;34442;52.362;-1.302;2022-09-13T13:53:42;0.85;;;0.50;;
48651;SDS011;34442;52.362;-1.302;2022-09-13T13:56:16;1.75;;;0.60;;
48651;SDS011;34442;52.362;-1.302;2022-09-13T13:58:58;2.00;;;0.50;;
48651;SDS011;34442;52.362;-1.302;2022-09-13T14:01:30;0.60;;;0.60;;
48651;SDS011;34442;52.362;-1.302;2022-09-13T14:06:44;2.00;;;0.85;;
48651;SDS011;34442;52.362;-1.302;2022-09-13T14:11:47;0.63;;;0.57;;
48651;SDS011;34442;52.362;-1.302;2022-09-13T14:14:32;1.17;;;0.52;;
48651;SDS011;34442;52.362;-1.302;2022-09-13T14:17:12;1.23;;;0.57;;
48651;SDS011;34442;52.362;-1.302;2022-09-13T14:20:32;1.15;;;0.60;;
48651;SDS011;34442;52.362;-1.302;2022-09-13T14:23:09;3.05;;;0.70;;
48651;SDS011;34442;52.362;-1.302;2022-09-13T14:25:44;0.45;;;0.30;;
48651;SDS011;34442;52.362;-1.302;2022-09-13T14:28:18;1.17;;;0.68;;
48651;SDS011;34442;52.362;-1.302;2022-09-13T14:30:47;1.00;;;0.57;;
48651;SDS011;34442;52.362;-1.302;2022-09-13T14:33:23;0.65;;;0.30;;
48651;SDS011;34442;52.362;-1.302;2022-09-13T14:35:57;0.73;;;0.52;;
48651;SDS011;34442;52.362;-1.302;2022-09-13T14:38:26;0.73;;;0.52;;
48651;SDS011;34442;52.362;-1.302;2022-09-13T14:40:59;0.40;;;0.40;;
48651;SDS011;34442;52.362;-1.302;2022-09-13T14:43:40;0.40;;;0.40;;
48651;SDS011;34442;52.362;-1.302;2022-09-13T14:46:07;0.50;;;0.30;;
48651;SDS011;34442;52.362;-1.302;2022-09-13T14:48:38;0.45;;;0.22;;
48651;SDS011;34442;52.362;-1.302;2022-09-13T14:51:27;0.50;;;0.50;;
48651;SDS011;34442;52.362;-1.302;2022-09-13T14:54:07;0.80;;;0.40;;
48651;SDS011;34442;52.362;-1.302;2022-09-13T14:56:46;0.47;;;0.45;;
48651;SDS011;34442;52.362;-1.302;2022-09-13T14:59:40;0.43;;;0.30;;
48651;SDS011;34442;52.362;-1.302;2022-09-13T15:02:52;0.40;;;0.40;;
48651;SDS011;34442;52.362;-1.302;2022-09-13T15:05:04;1.25;;;0.47;;
48651;SDS011;34442;52.362;-1.302;2022-09-13T15:07:37;0.63;;;0.50;;
48651;SDS011;34442;52.362;-1.302;2022-09-13T15:12:49;1.05;;;0.40;;
48651;SDS011;34442;52.362;-1.302;2022-09-13T15:17:57;0.65;;;0.40;;
48651;SDS011;34442;52.362;-1.302;2022-09-13T15:20:26;0.73;;;0.60;;
48651;SDS011;34442;52.362;-1.302;2022-09-13T15:22:55;0.38;;;0.32;;
48651;SDS011;34442;52.362;-1.302;2022-09-13T15:25:26;0.90;;;0.60;;
48651;SDS011;34442;52.362;-1.302;2022-09-13T15:27:54;1.88;;;0.60;;
48651;SDS011;34442;52.362;-1.302;2022-09-13T15:30:28;0.68;;;0.40;;
48651;SDS011;34442;52.362;-1.302;2022-09-13T15:35:35;0.57;;;0.50;;
48651;SDS011;34442;52.362;-1.302;2022-09-13T15:40:45;0.73;;;0.30;;
48651;SDS011;34442;52.362;-1.302;2022-09-13T15:43:22;0.40;;;0.40;;
48651;SDS011;34442;52.362;-1.302;2022-09-13T15:45:48;0.57;;;0.40;;
48651;SDS011;34442;52.362;-1.302;2022-09-13T15:48:28;1.20;;;0.40;;
48651;SDS011;34442;52.362;-1.302;2022-09-13T15:51:04;0.70;;;0.50;;
48651;SDS011;34442;52.362;-1.302;2022-09-13T15:53:32;1.17;;;0.52;;
48651;SDS011;34442;52.362;-1.302;2022-09-13T15:55:59;1.48;;;0.63;;
48651;SDS011;34442;52.362;-1.302;2022-09-13T15:58:26;0.55;;;0.35;;
48651;SDS011;34442;52.362;-1.302;2022-09-13T16:00:52;1.25;;;0.30;;
48651;SDS011;34442;52.362;-1.302;2022-09-13T16:03:18;0.40;;;0.40;;
48651;SDS011;34442;52.362;-1.302;2022-09-13T16:05:44;1.45;;;0.50;;
48651;SDS011;34442;52.362;-1.302;2022-09-13T16:08:10;0.40;;;0.40;;
48651;SDS011;34442;52.362;-1.302;2022-09-13T16:10:37;1.25;;;0.73;;
48651;SDS011;34442;52.362;-1.302;2022-09-13T16:13:06;1.88;;;0.93;;
48651;SDS011;34442;52.362;-1.302;2022-09-13T16:15:33;1.27;;;0.77;;
48651;SDS011;34442;52.362;-1.302;2022-09-13T16:17:59;2.35;;;0.88;;
48651;SDS011;34442;52.362;-1.302;2022-09-13T16:20:25;1.02;;;0.65;;
48651;SDS011;34442;52.362;-1.302;2022-09-13T16:22:52;1.13;;;0.65;;
48651;SDS011;34442;52.362;-1.302;2022-09-13T16:25:19;1.48;;;0.75;;
48651;SDS011;34442;52.362;-1.302;2022-09-13T16:27:45;0.88;;;0.50;;
48651;SDS011;34442;52.362;-1.302;2022-09-13T16:30:12;1.02;;;0.40;;
48651;SDS011;34442;52.362;-1.302;2022-09-13T16:32:40;1.75;;;0.73;;
48651;SDS011;34442;52.362;-1.302;2022-09-13T16:35:06;1.10;;;0.57;;
48651;SDS011;34442;52.362;-1.302;2022-09-13T16:37:33;0.80;;;0.68;;
48651;SDS011;34442;52.362;-1.302;2022-09-13T16:39:59;0.88;;;0.60;;
48651;SDS011;34442;52.362;-1.302;2022-09-13T16:42:25;0.40;;;0.40;;
48651;SDS011;34442;52.362;-1.302;2022-09-13T16:44:51;0.52;;;0.50;;
48651;SDS011;34442;52.362;-1.302;2022-09-13T16:47:17;0.93;;;0.35;;
48651;SDS011;34442;52.362;-1.302;2022-09-13T16:49:43;1.52;;;0.68;;
48651;SDS011;34442;52.362;-1.302;2022-09-13T16:52:09;1.55;;;0.63;;
48651;SDS011;34442;52.362;-1.302;2022-09-13T16:54:36;1.42;;;0.60;;
48651;SDS011;34442;52.362;-1.302;2022-09-13T16:57:02;1.77;;;0.80;;
48651;SDS011;34442;52.362;-1.302;2022-09-13T16:59:30;0.60;;;0.60;;
48651;SDS011;34442;52.362;-1.302;2022-09-13T17:01:57;0.93;;;0.60;;
48651;SDS011;34442;52.362;-1.302;2022-09-13T17:04:23;1.67;;;0.65;;
48651;SDS011;34442;52.362;-1.302;2022-09-13T17:06:50;0.85;;;0.75;;
48651;SDS011;34442;52.362;-1.302;2022-09-13T17:09:16;1.50;;;0.60;;
48651;SDS011;34442;52.362;-1.302;2022-09-13T17:11:43;0.55;;;0.43;;
48651;SDS011;34442;52.362;-1.302;2022-09-13T17:14:10;0.95;;;0.60;;
48651;SDS011;34442;52.362;-1.302;2022-09-13T17:16:42;0.93;;;0.50;;
48651;SDS011;34442;52.362;-1.302;2022-09-13T17:19:12;1.40;;;0.70;;
48651;SDS011;34442;52.362;-1.302;2022-09-13T17:21:41;1.27;;;0.63;;
48651;SDS011;34442;52.362;-1.302;2022-09-13T17:24:08;0.50;;;0.50;;
48651;SDS011;34442;52.362;-1.302;2022-09-13T17:26:34;0.73;;;0.40;;
48651;SDS011;34442;52.362;-1.302;2022-09-13T17:29:00;0.65;;;0.50;;
48651;SDS011;34442;52.362;-1.302;2022-09-13T17:31:26;0.50;;;0.50;;
48651;SDS011;34442;52.362;-1.302;2022-09-13T17:33:52;0.63;;;0.60;;
48651;SDS011;34442;52.362;-1.302;2022-09-13T17:36:18;0.40;;;0.40;;
48651;SDS011;34442;52.362;-1.302;2022-09-13T17:38:44;0.77;;;0.50;;
48651;SDS011;34442;52.362;-1.302;2022-09-13T17:41:12;1.23;;;0.50;;
48651;SDS011;34442;52.362;-1.302;2022-09-13T17:43:40;1.15;;;0.55;;
48651;SDS011;34442;52.362;-1.302;2022-09-13T17:46:09;0.65;;;0.40;;
48651;SDS011;34442;52.362;-1.302;2022-09-13T17:48:37;0.30;;;0.30;;
48651;SDS011;34442;52.362;-1.302;2022-09-13T17:51:05;0.77;;;0.50;;
48651;SDS011;34442;52.362;-1.302;2022-09-13T17:53:39;0.40;;;0.40;;
48651;SDS011;34442;52.362;-1.302;2022-09-13T17:56:17;0.52;;;0.50;;
48651;SDS011;34442;52.362;-1.302;2022-09-13T17:58:44;0.50;;;0.40;;
48651;SDS011;34442;52.362;-1.302;2022-09-13T18:01:11;0.70;;;0.40;;
48651;SDS011;34442;52.362;-1.302;2022-09-13T18:03:38;2.53;;;1.02;;
48651;SDS011;34442;52.362;-1.302;2022-09-13T18:06:04;0.88;;;0.60;;
48651;SDS011;34442;52.362;-1.302;2022-09-13T18:08:32;1.75;;;0.60;;
48651;SDS011;34442;52.362;-1.302;2022-09-13T18:11:00;1.25;;;0.75;;
48651;SDS011;34442;52.362;-1.302;2022-09-13T18:13:28;0.63;;;0.60;;
48651;SDS011;34442;52.362;-1.302;2022-09-13T18:15:58;0.85;;;0.60;;